sensor_id;sensor_type;location;lat;lon;timestamp;P1;durP1;ratioP1;P2;durP2;ratioP2
7027;SDS011;3555;53.248;10.336;2024-01-06T00:01:06;9.10;;;6.17;;
7027;SDS011;3555;53.248;10.336;2024-01-06T00:03:37;11.40;;;7.03;;
7027;SDS011;3555;53.248;10.336;2024-01-06T00:06:04;13.83;;;8.07;;
7027;SDS011;3555;53.248;10.336;2024-01-06T00:08:31;11.80;;;7.47;;
7027;SDS011;3555;53.248;10.336;2024-01-06T00:10:58;9.87;;;7.13;;
7027;SDS011;3555;53.248;10.336;2024-01-06T00:13:27;11.30;;;6.53;;
7027;SDS011;3555;53.248;10.336;2024-01-06T00:15:54;12.13;;;7.53;;
7027;SDS011;3555;53.248;10.336;2024-01-06T00:18:22;13.83;;;7.57;;
7027;SDS011;3555;53.248;10.336;2024-01-06T00:20:49;12.83;;;7.43;;
7027;SDS011;3555;53.248;10.336;2024-01-06T00:23:16;11.87;;;7.03;;
7027;SDS011;3555;53.248;10.336;2024-01-06T00:25:43;13.33;;;8.17;;
7027;SDS011;3555;53.248;10.336;2024-01-06T00:28:10;11.53;;;7.77;;
7027;SDS011;3555;53.248;10.336;2024-01-06T00:30:37;13.20;;;7.80;;
7027;SDS011;3555;53.248;10.336;2024-01-06T00:33:04;13.17;;;7.83;;
7027;SDS011;3555;53.248;10.336;2024-01-06T00:35:32;14.97;;;8.43;;
7027;SDS011;3555;53.248;10.336;2024-01-06T00:37:59;14.37;;;8.40;;
7027;SDS011;3555;53.248;10.336;2024-01-06T00:40:26;16.30;;;8.40;;
7027;SDS011;3555;53.248;10.336;2024-01-06T00:42:53;15.60;;;8.43;;
7027;SDS011;3555;53.248;10.336;2024-01-06T00:45:20;14.33;;;8.30;;
7027;SDS011;3555;53.248;10.336;2024-01-06T00:47:47;17.87;;;9.00;;
7027;SDS011;3555;53.248;10.336;2024-01-06T00:50:14;12.57;;;8.23;;
7027;SDS011;3555;53.248;10.336;2024-01-06T00:52:43;13.47;;;8.50;;
7027;SDS011;3555;53.248;10.336;2024-01-06T00:55:10;14.47;;;9.20;;
7027;SDS011;3555;53.248;10.336;2024-01-06T00:57:37;17.03;;;8.73;;
7027;SDS011;3555;53.248;10.336;2024-01-06T01:00:04;13.07;;;8.17;;
7027;SDS011;3555;53.248;10.336;2024-01-06T01:02:31;16.47;;;8.63;;
7027;SDS011;3555;53.248;10.336;2024-01-06T01:04:58;14.80;;;8.43;;
7027;SDS011;3555;53.248;10.336;2024-01-06T01:07:25;18.37;;;8.70;;
7027;SDS011;3555;53.248;10.336;2024-01-06T01:09:54;15.60;;;8.33;;
7027;SDS011;3555;53.248;10.336;2024-01-06T01:12:21;15.30;;;8.43;;
7027;SDS011;3555;53.248;10.336;2024-01-06T01:14:48;12.57;;;8.27;;
7027;SDS011;3555;53.248;10.336;2024-01-06T01:17:15;12.43;;;7.97;;
7027;SDS011;3555;53.248;10.336;2024-01-06T01:19:42;16.03;;;8.70;;
7027;SDS011;3555;53.248;10.336;2024-01-06T01:22:09;16.80;;;8.00;;
7027;SDS011;3555;53.248;10.336;2024-01-06T01:24:36;12.03;;;7.63;;
7027;SDS011;3555;53.248;10.336;2024-01-06T01:27:05;12.23;;;8.40;;
7027;SDS011;3555;53.248;10.336;2024-01-06T01:29:31;13.53;;;8.70;;
7027;SDS011;3555;53.248;10.336;2024-01-06T01:31:58;13.57;;;7.47;;
7027;SDS011;3555;53.248;10.336;2024-01-06T01:34:25;17.27;;;8.53;;
7027;SDS011;3555;53.248;10.336;2024-01-06T01:36:52;17.53;;;8.83;;
7027;SDS011;3555;53.248;10.336;2024-01-06T01:39:19;12.13;;;7.47;;
7027;SDS011;3555;53.248;10.336;2024-01-06T01:41:46;12.03;;;7.73;;
7027;SDS011;3555;53.248;10.336;2024-01-06T01:44:14;11.50;;;7.73;;
7027;SDS011;3555;53.248;10.336;2024-01-06T01:46:42;14.07;;;8.20;;
7027;SDS011;3555;53.248;10.336;2024-01-06T01:49:09;14.67;;;8.33;;
7027;SDS011;3555;53.248;10.336;2024-01-06T01:51:36;13.40;;;7.40;;
7027;SDS011;3555;53.248;10.336;2024-01-06T01:54:03;13.97;;;7.67;;
7027;SDS011;3555;53.248;10.336;2024-01-06T01:56:32;12.67;;;8.10;;
7027;SDS011;3555;53.248;10.336;2024-01-06T01:59:00;13.80;;;8.10;;
7027;SDS011;3555;53.248;10.336;2024-01-06T02:01:32;14.27;;;8.00;;
7027;SDS011;3555;53.248;10.336;2024-01-06T02:04:00;13.60;;;7.23;;
7027;SDS011;3555;53.248;10.336;2024-01-06T02:06:27;12.10;;;7.67;;
7027;SDS011;3555;53.248;10.336;2024-01-06T02:08:54;15.20;;;8.40;;
7027;SDS011;3555;53.248;10.336;2024-01-06T02:11:21;11.20;;;8.17;;
7027;SDS011;3555;53.248;10.336;2024-01-06T02:13:48;11.60;;;8.20;;
7027;SDS011;3555;53.248;10.336;2024-01-06T02:16:15;16.37;;;8.43;;
7027;SDS011;3555;53.248;10.336;2024-01-06T02:18:43;14.23;;;8.67;;
7027;SDS011;3555;53.248;10.336;2024-01-06T02:21:10;13.07;;;8.37;;
7027;SDS011;3555;53.248;10.336;2024-01-06T02:23:38;15.80;;;8.10;;
7027;SDS011;3555;53.248;10.336;2024-01-06T02:26:05;13.70;;;7.73;;
7027;SDS011;3555;53.248;10.336;2024-01-06T02:28:32;14.67;;;9.03;;
7027;SDS011;3555;53.248;10.336;2024-01-06T02:30:59;14.57;;;8.43;;
7027;SDS011;3555;53.248;10.336;2024-01-06T02:33:25;15.80;;;8.37;;
7027;SDS011;3555;53.248;10.336;2024-01-06T02:35:52;12.93;;;7.53;;
7027;SDS011;3555;53.248;10.336;2024-01-06T02:38:19;13.23;;;8.03;;
7027;SDS011;3555;53.248;10.336;2024-01-06T02:40:47;16.37;;;8.33;;
7027;SDS011;3555;53.248;10.336;2024-01-06T02:43:14;12.87;;;8.20;;
7027;SDS011;3555;53.248;10.336;2024-01-06T02:45:41;12.40;;;7.23;;
7027;SDS011;3555;53.248;10.336;2024-01-06T02:48:08;11.37;;;7.93;;
7027;SDS011;3555;53.248;10.336;2024-01-06T02:50:34;15.23;;;8.00;;
7027;SDS011;3555;53.248;10.336;2024-01-06T02:53:01;13.93;;;8.03;;
7027;SDS011;3555;53.248;10.336;2024-01-06T02:55:29;14.03;;;8.27;;
7027;SDS011;3555;53.248;10.336;2024-01-06T02:57:57;13.93;;;8.53;;
7027;SDS011;3555;53.248;10.336;2024-01-06T03:00:24;11.57;;;7.27;;
7027;SDS011;3555;53.248;10.336;2024-01-06T03:02:51;12.07;;;7.50;;
7027;SDS011;3555;53.248;10.336;2024-01-06T03:05:18;13.87;;;7.97;;
7027;SDS011;3555;53.248;10.336;2024-01-06T03:07:44;11.97;;;7.83;;
7027;SDS011;3555;53.248;10.336;2024-01-06T03:10:11;15.17;;;9.30;;
7027;SDS011;3555;53.248;10.336;2024-01-06T03:12:39;12.80;;;8.20;;
7027;SDS011;3555;53.248;10.336;2024-01-06T03:15:07;11.67;;;7.67;;
7027;SDS011;3555;53.248;10.336;2024-01-06T03:17:35;11.50;;;7.70;;
7027;SDS011;3555;53.248;10.336;2024-01-06T03:20:02;13.87;;;7.37;;
7027;SDS011;3555;53.248;10.336;2024-01-06T03:22:30;13.37;;;7.47;;
7027;SDS011;3555;53.248;10.336;2024-01-06T03:24:56;12.87;;;6.93;;
7027;SDS011;3555;53.248;10.336;2024-01-06T03:27:23;12.37;;;7.50;;
7027;SDS011;3555;53.248;10.336;2024-01-06T03:29:50;12.13;;;8.20;;
7027;SDS011;3555;53.248;10.336;2024-01-06T03:32:18;11.20;;;7.03;;
7027;SDS011;3555;53.248;10.336;2024-01-06T03:34:45;10.83;;;7.10;;
7027;SDS011;3555;53.248;10.336;2024-01-06T03:37:12;12.63;;;7.73;;
7027;SDS011;3555;53.248;10.336;2024-01-06T03:39:39;13.70;;;8.03;;
7027;SDS011;3555;53.248;10.336;2024-01-06T03:42:06;13.53;;;7.97;;
7027;SDS011;3555;53.248;10.336;2024-01-06T03:44:33;13.47;;;7.70;;
7027;SDS011;3555;53.248;10.336;2024-01-06T03:47:00;13.73;;;8.17;;
7027;SDS011;3555;53.248;10.336;2024-01-06T03:49:28;10.57;;;7.60;;
7027;SDS011;3555;53.248;10.336;2024-01-06T03:51:55;10.60;;;7.07;;
7027;SDS011;3555;53.248;10.336;2024-01-06T03:54:21;14.67;;;7.90;;
7027;SDS011;3555;53.248;10.336;2024-01-06T03:56:49;11.07;;;6.97;;
7027;SDS011;3555;53.248;10.336;2024-01-06T03:59:16;12.47;;;8.00;;
7027;SDS011;3555;53.248;10.336;2024-01-06T04:01:42;12.07;;;7.77;;
7027;SDS011;3555;53.248;10.336;2024-01-06T04:04:09;14.60;;;8.03;;
7027;SDS011;3555;53.248;10.336;2024-01-06T04:06:37;13.47;;;8.03;;
7027;SDS011;3555;53.248;10.336;2024-01-06T04:09:04;12.37;;;7.53;;
7027;SDS011;3555;53.248;10.336;2024-01-06T04:11:31;13.03;;;7.80;;
7027;SDS011;3555;53.248;10.336;2024-01-06T04:13:58;13.13;;;7.63;;
7027;SDS011;3555;53.248;10.336;2024-01-06T04:16:25;12.50;;;7.97;;
7027;SDS011;3555;53.248;10.336;2024-01-06T04:18:53;12.87;;;7.93;;
7027;SDS011;3555;53.248;10.336;2024-01-06T04:21:19;12.53;;;7.60;;
7027;SDS011;3555;53.248;10.336;2024-01-06T04:23:48;14.50;;;8.80;;
7027;SDS011;3555;53.248;10.336;2024-01-06T04:26:15;12.47;;;8.10;;
7027;SDS011;3555;53.248;10.336;2024-01-06T04:28:42;13.07;;;8.33;;
7027;SDS011;3555;53.248;10.336;2024-01-06T04:31:09;13.97;;;8.77;;
7027;SDS011;3555;53.248;10.336;2024-01-06T04:33:36;12.93;;;8.00;;
7027;SDS011;3555;53.248;10.336;2024-01-06T04:36:03;13.37;;;7.80;;
7027;SDS011;3555;53.248;10.336;2024-01-06T04:38:31;14.37;;;8.17;;
7027;SDS011;3555;53.248;10.336;2024-01-06T04:40:59;13.63;;;8.27;;
7027;SDS011;3555;53.248;10.336;2024-01-06T04:43:26;13.77;;;7.70;;
7027;SDS011;3555;53.248;10.336;2024-01-06T04:45:53;15.07;;;8.90;;
7027;SDS011;3555;53.248;10.336;2024-01-06T04:48:19;12.13;;;8.67;;
7027;SDS011;3555;53.248;10.336;2024-01-06T04:50:46;15.00;;;8.07;;
7027;SDS011;3555;53.248;10.336;2024-01-06T04:53:13;13.83;;;8.53;;
7027;SDS011;3555;53.248;10.336;2024-01-06T04:55:40;17.03;;;9.10;;
7027;SDS011;3555;53.248;10.336;2024-01-06T04:58:08;13.27;;;9.10;;
7027;SDS011;3555;53.248;10.336;2024-01-06T05:00:35;14.23;;;9.37;;
7027;SDS011;3555;53.248;10.336;2024-01-06T05:03:02;15.00;;;9.07;;
7027;SDS011;3555;53.248;10.336;2024-01-06T05:05:29;14.97;;;8.60;;
7027;SDS011;3555;53.248;10.336;2024-01-06T05:07:56;17.17;;;9.63;;
7027;SDS011;3555;53.248;10.336;2024-01-06T05:10:24;18.27;;;9.60;;
7027;SDS011;3555;53.248;10.336;2024-01-06T05:12:51;15.33;;;9.10;;
7027;SDS011;3555;53.248;10.336;2024-01-06T05:15:19;13.80;;;8.63;;
7027;SDS011;3555;53.248;10.336;2024-01-06T05:17:46;14.10;;;8.53;;
7027;SDS011;3555;53.248;10.336;2024-01-06T05:20:13;14.83;;;7.90;;
7027;SDS011;3555;53.248;10.336;2024-01-06T05:22:40;13.97;;;7.93;;
7027;SDS011;3555;53.248;10.336;2024-01-06T05:25:07;12.97;;;8.30;;
7027;SDS011;3555;53.248;10.336;2024-01-06T05:27:35;14.43;;;8.97;;
7027;SDS011;3555;53.248;10.336;2024-01-06T05:30:02;14.00;;;8.80;;
7027;SDS011;3555;53.248;10.336;2024-01-06T05:32:30;11.63;;;8.13;;
7027;SDS011;3555;53.248;10.336;2024-01-06T05:34:57;13.30;;;8.27;;
7027;SDS011;3555;53.248;10.336;2024-01-06T05:37:24;16.40;;;8.90;;
7027;SDS011;3555;53.248;10.336;2024-01-06T05:39:51;17.13;;;9.50;;
7027;SDS011;3555;53.248;10.336;2024-01-06T05:42:17;12.83;;;8.23;;
7027;SDS011;3555;53.248;10.336;2024-01-06T05:44:44;14.00;;;9.67;;
7027;SDS011;3555;53.248;10.336;2024-01-06T05:47:11;15.30;;;9.27;;
7027;SDS011;3555;53.248;10.336;2024-01-06T05:49:42;16.27;;;9.60;;
7027;SDS011;3555;53.248;10.336;2024-01-06T05:52:09;16.23;;;9.60;;
7027;SDS011;3555;53.248;10.336;2024-01-06T05:54:36;15.87;;;9.57;;
7027;SDS011;3555;53.248;10.336;2024-01-06T05:57:07;15.97;;;10.20;;
7027;SDS011;3555;53.248;10.336;2024-01-06T05:59:34;13.97;;;9.57;;
7027;SDS011;3555;53.248;10.336;2024-01-06T06:02:01;14.77;;;10.13;;
7027;SDS011;3555;53.248;10.336;2024-01-06T06:04:28;20.80;;;10.97;;
7027;SDS011;3555;53.248;10.336;2024-01-06T06:06:56;18.33;;;10.70;;
7027;SDS011;3555;53.248;10.336;2024-01-06T06:09:23;16.30;;;10.47;;
7027;SDS011;3555;53.248;10.336;2024-01-06T06:11:49;15.20;;;10.03;;
7027;SDS011;3555;53.248;10.336;2024-01-06T06:14:16;16.13;;;10.30;;
7027;SDS011;3555;53.248;10.336;2024-01-06T06:16:43;18.37;;;9.90;;
7027;SDS011;3555;53.248;10.336;2024-01-06T06:19:10;16.13;;;11.23;;
7027;SDS011;3555;53.248;10.336;2024-01-06T06:21:37;15.27;;;10.43;;
7027;SDS011;3555;53.248;10.336;2024-01-06T06:24:05;15.30;;;10.30;;
7027;SDS011;3555;53.248;10.336;2024-01-06T06:26:32;17.07;;;10.23;;
7027;SDS011;3555;53.248;10.336;2024-01-06T06:28:59;17.67;;;10.70;;
7027;SDS011;3555;53.248;10.336;2024-01-06T06:31:26;15.17;;;10.17;;
7027;SDS011;3555;53.248;10.336;2024-01-06T06:33:53;17.13;;;10.27;;
7027;SDS011;3555;53.248;10.336;2024-01-06T06:36:20;16.53;;;10.53;;
7027;SDS011;3555;53.248;10.336;2024-01-06T06:38:47;19.70;;;11.70;;
7027;SDS011;3555;53.248;10.336;2024-01-06T06:41:15;16.77;;;9.93;;
7027;SDS011;3555;53.248;10.336;2024-01-06T06:43:42;16.57;;;9.93;;
7027;SDS011;3555;53.248;10.336;2024-01-06T06:46:09;18.23;;;10.90;;
7027;SDS011;3555;53.248;10.336;2024-01-06T06:48:36;19.37;;;11.63;;
7027;SDS011;3555;53.248;10.336;2024-01-06T06:51:03;17.43;;;10.80;;
7027;SDS011;3555;53.248;10.336;2024-01-06T06:53:30;19.20;;;11.07;;
7027;SDS011;3555;53.248;10.336;2024-01-06T06:55:56;15.70;;;10.40;;
7027;SDS011;3555;53.248;10.336;2024-01-06T06:58:25;17.07;;;10.40;;
7027;SDS011;3555;53.248;10.336;2024-01-06T07:00:51;19.23;;;10.97;;
7027;SDS011;3555;53.248;10.336;2024-01-06T07:03:19;18.97;;;12.23;;
7027;SDS011;3555;53.248;10.336;2024-01-06T07:05:46;17.20;;;10.73;;
7027;SDS011;3555;53.248;10.336;2024-01-06T07:08:13;16.80;;;10.60;;
7027;SDS011;3555;53.248;10.336;2024-01-06T07:10:40;18.50;;;12.70;;
7027;SDS011;3555;53.248;10.336;2024-01-06T07:13:07;20.80;;;12.17;;
7027;SDS011;3555;53.248;10.336;2024-01-06T07:15:35;17.90;;;11.80;;
7027;SDS011;3555;53.248;10.336;2024-01-06T07:18:02;20.13;;;11.33;;
7027;SDS011;3555;53.248;10.336;2024-01-06T07:20:29;20.50;;;11.53;;
7027;SDS011;3555;53.248;10.336;2024-01-06T07:22:56;18.20;;;11.97;;
7027;SDS011;3555;53.248;10.336;2024-01-06T07:25:23;21.67;;;12.13;;
7027;SDS011;3555;53.248;10.336;2024-01-06T07:27:49;16.80;;;10.93;;
7027;SDS011;3555;53.248;10.336;2024-01-06T07:30:16;20.33;;;11.90;;
7027;SDS011;3555;53.248;10.336;2024-01-06T07:32:45;18.17;;;11.93;;
7027;SDS011;3555;53.248;10.336;2024-01-06T07:35:12;19.43;;;11.97;;
7027;SDS011;3555;53.248;10.336;2024-01-06T07:37:39;19.80;;;12.07;;
7027;SDS011;3555;53.248;10.336;2024-01-06T07:40:06;22.57;;;12.47;;
7027;SDS011;3555;53.248;10.336;2024-01-06T07:42:34;21.77;;;12.23;;
7027;SDS011;3555;53.248;10.336;2024-01-06T07:45:01;17.93;;;11.30;;
7027;SDS011;3555;53.248;10.336;2024-01-06T07:47:28;20.10;;;12.70;;
7027;SDS011;3555;53.248;10.336;2024-01-06T07:49:56;18.00;;;11.27;;
7027;SDS011;3555;53.248;10.336;2024-01-06T07:52:23;19.10;;;11.93;;
7027;SDS011;3555;53.248;10.336;2024-01-06T07:54:50;22.13;;;12.50;;
7027;SDS011;3555;53.248;10.336;2024-01-06T07:57:17;18.97;;;12.20;;
7027;SDS011;3555;53.248;10.336;2024-01-06T07:59:44;18.53;;;11.83;;
7027;SDS011;3555;53.248;10.336;2024-01-06T08:02:11;16.93;;;12.57;;
7027;SDS011;3555;53.248;10.336;2024-01-06T08:04:38;17.23;;;10.93;;
7027;SDS011;3555;53.248;10.336;2024-01-06T08:07:05;21.00;;;11.43;;
7027;SDS011;3555;53.248;10.336;2024-01-06T08:09:32;17.80;;;11.23;;
7027;SDS011;3555;53.248;10.336;2024-01-06T08:11:59;16.63;;;11.30;;
7027;SDS011;3555;53.248;10.336;2024-01-06T08:14:26;17.33;;;10.93;;
7027;SDS011;3555;53.248;10.336;2024-01-06T08:16:53;18.63;;;12.00;;
7027;SDS011;3555;53.248;10.336;2024-01-06T08:19:19;17.63;;;11.57;;
7027;SDS011;3555;53.248;10.336;2024-01-06T08:21:46;16.00;;;11.13;;
7027;SDS011;3555;53.248;10.336;2024-01-06T08:24:15;16.77;;;11.30;;
7027;SDS011;3555;53.248;10.336;2024-01-06T08:26:42;17.50;;;10.97;;
7027;SDS011;3555;53.248;10.336;2024-01-06T08:29:10;16.93;;;11.47;;
7027;SDS011;3555;53.248;10.336;2024-01-06T08:31:36;17.70;;;11.07;;
7027;SDS011;3555;53.248;10.336;2024-01-06T08:34:03;17.77;;;11.30;;
7027;SDS011;3555;53.248;10.336;2024-01-06T08:36:32;17.67;;;11.60;;
7027;SDS011;3555;53.248;10.336;2024-01-06T08:38:59;15.90;;;11.00;;
7027;SDS011;3555;53.248;10.336;2024-01-06T08:41:28;16.20;;;10.83;;
7027;SDS011;3555;53.248;10.336;2024-01-06T08:43:55;14.90;;;10.37;;
7027;SDS011;3555;53.248;10.336;2024-01-06T08:46:21;14.43;;;10.07;;
7027;SDS011;3555;53.248;10.336;2024-01-06T08:48:48;16.63;;;10.83;;
7027;SDS011;3555;53.248;10.336;2024-01-06T08:51:15;20.97;;;12.17;;
7027;SDS011;3555;53.248;10.336;2024-01-06T08:53:42;16.27;;;11.07;;
7027;SDS011;3555;53.248;10.336;2024-01-06T08:56:09;16.57;;;10.57;;
7027;SDS011;3555;53.248;10.336;2024-01-06T08:58:37;16.27;;;10.47;;
7027;SDS011;3555;53.248;10.336;2024-01-06T09:01:04;15.37;;;10.60;;
7027;SDS011;3555;53.248;10.336;2024-01-06T09:03:31;14.97;;;10.37;;
7027;SDS011;3555;53.248;10.336;2024-01-06T09:05:58;17.60;;;11.07;;
7027;SDS011;3555;53.248;10.336;2024-01-06T09:08:25;16.53;;;11.17;;
7027;SDS011;3555;53.248;10.336;2024-01-06T09:10:52;14.30;;;10.33;;
7027;SDS011;3555;53.248;10.336;2024-01-06T09:13:22;18.47;;;10.57;;
7027;SDS011;3555;53.248;10.336;2024-01-06T09:15:50;15.83;;;10.47;;
7027;SDS011;3555;53.248;10.336;2024-01-06T09:18:17;22.37;;;12.00;;
7027;SDS011;3555;53.248;10.336;2024-01-06T09:20:44;16.77;;;11.17;;
7027;SDS011;3555;53.248;10.336;2024-01-06T09:23:12;16.00;;;10.13;;
7027;SDS011;3555;53.248;10.336;2024-01-06T09:25:39;16.70;;;10.60;;
7027;SDS011;3555;53.248;10.336;2024-01-06T09:28:06;17.13;;;10.23;;
7027;SDS011;3555;53.248;10.336;2024-01-06T09:30:33;14.93;;;10.27;;
7027;SDS011;3555;53.248;10.336;2024-01-06T09:33:01;20.10;;;10.70;;
7027;SDS011;3555;53.248;10.336;2024-01-06T09:35:28;14.37;;;10.13;;
7027;SDS011;3555;53.248;10.336;2024-01-06T09:37:55;17.87;;;10.37;;
7027;SDS011;3555;53.248;10.336;2024-01-06T09:40:23;16.73;;;10.27;;
7027;SDS011;3555;53.248;10.336;2024-01-06T09:42:50;15.23;;;9.83;;
7027;SDS011;3555;53.248;10.336;2024-01-06T09:45:18;15.07;;;10.13;;
7027;SDS011;3555;53.248;10.336;2024-01-06T09:47:47;14.67;;;9.80;;
7027;SDS011;3555;53.248;10.336;2024-01-06T09:50:18;16.10;;;10.33;;
7027;SDS011;3555;53.248;10.336;2024-01-06T09:52:46;15.87;;;9.80;;
7027;SDS011;3555;53.248;10.336;2024-01-06T09:55:19;14.77;;;9.80;;
7027;SDS011;3555;53.248;10.336;2024-01-06T09:57:49;15.73;;;10.50;;
7027;SDS011;3555;53.248;10.336;2024-01-06T10:00:16;15.30;;;10.07;;
7027;SDS011;3555;53.248;10.336;2024-01-06T10:02:45;14.20;;;9.67;;
7027;SDS011;3555;53.248;10.336;2024-01-06T10:05:13;16.00;;;9.10;;
7027;SDS011;3555;53.248;10.336;2024-01-06T10:07:42;16.23;;;9.70;;
7027;SDS011;3555;53.248;10.336;2024-01-06T10:10:10;14.70;;;9.70;;
7027;SDS011;3555;53.248;10.336;2024-01-06T10:12:37;15.37;;;9.97;;
7027;SDS011;3555;53.248;10.336;2024-01-06T10:15:05;13.23;;;9.27;;
7027;SDS011;3555;53.248;10.336;2024-01-06T10:17:32;14.13;;;9.63;;
7027;SDS011;3555;53.248;10.336;2024-01-06T10:20:02;13.87;;;9.87;;
7027;SDS011;3555;53.248;10.336;2024-01-06T10:22:32;15.57;;;9.80;;
7027;SDS011;3555;53.248;10.336;2024-01-06T10:25:02;12.83;;;9.17;;
7027;SDS011;3555;53.248;10.336;2024-01-06T10:27:30;12.07;;;9.13;;
7027;SDS011;3555;53.248;10.336;2024-01-06T10:29:59;13.57;;;9.57;;
7027;SDS011;3555;53.248;10.336;2024-01-06T10:32:26;15.87;;;10.23;;
7027;SDS011;3555;53.248;10.336;2024-01-06T10:34:56;13.07;;;9.37;;
7027;SDS011;3555;53.248;10.336;2024-01-06T10:37:23;14.67;;;9.37;;
7027;SDS011;3555;53.248;10.336;2024-01-06T10:42:38;14.50;;;9.70;;
7027;SDS011;3555;53.248;10.336;2024-01-06T10:45:07;13.37;;;8.90;;
7027;SDS011;3555;53.248;10.336;2024-01-06T10:47:35;15.37;;;10.13;;
7027;SDS011;3555;53.248;10.336;2024-01-06T10:50:03;15.53;;;9.87;;
7027;SDS011;3555;53.248;10.336;2024-01-06T10:52:31;19.00;;;11.03;;
7027;SDS011;3555;53.248;10.336;2024-01-06T10:54:58;17.83;;;10.87;;
7027;SDS011;3555;53.248;10.336;2024-01-06T10:57:26;16.53;;;10.63;;
7027;SDS011;3555;53.248;10.336;2024-01-06T10:59:57;15.90;;;10.30;;
7027;SDS011;3555;53.248;10.336;2024-01-06T11:02:25;18.33;;;10.83;;
7027;SDS011;3555;53.248;10.336;2024-01-06T11:04:52;17.30;;;10.97;;
7027;SDS011;3555;53.248;10.336;2024-01-06T11:07:20;18.00;;;11.13;;
7027;SDS011;3555;53.248;10.336;2024-01-06T11:09:50;14.23;;;10.10;;
7027;SDS011;3555;53.248;10.336;2024-01-06T11:12:23;15.57;;;10.37;;
7027;SDS011;3555;53.248;10.336;2024-01-06T11:14:52;16.67;;;10.87;;
7027;SDS011;3555;53.248;10.336;2024-01-06T11:20:20;15.93;;;10.20;;
7027;SDS011;3555;53.248;10.336;2024-01-06T11:22:48;18.03;;;10.37;;
7027;SDS011;3555;53.248;10.336;2024-01-06T11:25:15;19.77;;;11.40;;
7027;SDS011;3555;53.248;10.336;2024-01-06T11:27:44;17.17;;;11.33;;
7027;SDS011;3555;53.248;10.336;2024-01-06T11:30:22;19.23;;;11.80;;
7027;SDS011;3555;53.248;10.336;2024-01-06T11:32:51;16.90;;;10.83;;
7027;SDS011;3555;53.248;10.336;2024-01-06T11:35:19;16.63;;;10.43;;
7027;SDS011;3555;53.248;10.336;2024-01-06T11:37:53;18.90;;;11.43;;
7027;SDS011;3555;53.248;10.336;2024-01-06T11:40:22;14.23;;;9.73;;
7027;SDS011;3555;53.248;10.336;2024-01-06T11:42:57;17.80;;;10.17;;
7027;SDS011;3555;53.248;10.336;2024-01-06T11:45:27;16.70;;;10.10;;
7027;SDS011;3555;53.248;10.336;2024-01-06T11:47:55;16.47;;;9.73;;
7027;SDS011;3555;53.248;10.336;2024-01-06T11:50:24;14.80;;;9.87;;
7027;SDS011;3555;53.248;10.336;2024-01-06T11:52:52;16.27;;;10.20;;
7027;SDS011;3555;53.248;10.336;2024-01-06T11:55:19;13.63;;;9.30;;
7027;SDS011;3555;53.248;10.336;2024-01-06T11:57:46;17.20;;;9.37;;
7027;SDS011;3555;53.248;10.336;2024-01-06T12:00:14;13.80;;;9.00;;
7027;SDS011;3555;53.248;10.336;2024-01-06T12:02:43;16.33;;;10.13;;
7027;SDS011;3555;53.248;10.336;2024-01-06T12:05:14;15.33;;;9.17;;
7027;SDS011;3555;53.248;10.336;2024-01-06T12:07:41;17.77;;;10.27;;
7027;SDS011;3555;53.248;10.336;2024-01-06T12:10:08;16.43;;;9.83;;
7027;SDS011;3555;53.248;10.336;2024-01-06T12:12:37;15.53;;;10.43;;
7027;SDS011;3555;53.248;10.336;2024-01-06T12:15:04;16.30;;;10.10;;
7027;SDS011;3555;53.248;10.336;2024-01-06T12:17:34;14.37;;;9.50;;
7027;SDS011;3555;53.248;10.336;2024-01-06T12:20:04;16.00;;;9.60;;
7027;SDS011;3555;53.248;10.336;2024-01-06T12:22:33;15.13;;;10.23;;
7027;SDS011;3555;53.248;10.336;2024-01-06T12:25:00;13.77;;;9.53;;
7027;SDS011;3555;53.248;10.336;2024-01-06T12:27:31;15.17;;;8.83;;
7027;SDS011;3555;53.248;10.336;2024-01-06T12:29:57;14.10;;;9.27;;
7027;SDS011;3555;53.248;10.336;2024-01-06T12:32:24;14.10;;;9.57;;
7027;SDS011;3555;53.248;10.336;2024-01-06T12:34:51;16.00;;;9.17;;
7027;SDS011;3555;53.248;10.336;2024-01-06T12:37:19;15.27;;;8.67;;
7027;SDS011;3555;53.248;10.336;2024-01-06T12:39:46;11.40;;;8.43;;
7027;SDS011;3555;53.248;10.336;2024-01-06T12:42:14;13.10;;;9.13;;
7027;SDS011;3555;53.248;10.336;2024-01-06T12:44:42;11.40;;;8.07;;
7027;SDS011;3555;53.248;10.336;2024-01-06T12:47:09;11.07;;;7.90;;
7027;SDS011;3555;53.248;10.336;2024-01-06T12:49:37;11.57;;;7.40;;
7027;SDS011;3555;53.248;10.336;2024-01-06T12:52:04;13.00;;;8.50;;
7027;SDS011;3555;53.248;10.336;2024-01-06T12:54:32;11.63;;;8.00;;
7027;SDS011;3555;53.248;10.336;2024-01-06T12:56:59;14.57;;;8.83;;
7027;SDS011;3555;53.248;10.336;2024-01-06T12:59:26;11.27;;;7.97;;
7027;SDS011;3555;53.248;10.336;2024-01-06T13:01:55;12.00;;;8.23;;
7027;SDS011;3555;53.248;10.336;2024-01-06T13:04:22;11.17;;;8.00;;
7027;SDS011;3555;53.248;10.336;2024-01-06T13:06:49;11.83;;;8.10;;
7027;SDS011;3555;53.248;10.336;2024-01-06T13:09:16;11.97;;;7.70;;
7027;SDS011;3555;53.248;10.336;2024-01-06T13:11:44;12.83;;;8.60;;
7027;SDS011;3555;53.248;10.336;2024-01-06T13:14:12;12.07;;;8.50;;
7027;SDS011;3555;53.248;10.336;2024-01-06T13:16:39;13.70;;;8.40;;
7027;SDS011;3555;53.248;10.336;2024-01-06T13:19:06;13.27;;;7.93;;
7027;SDS011;3555;53.248;10.336;2024-01-06T13:21:33;12.53;;;8.03;;
7027;SDS011;3555;53.248;10.336;2024-01-06T13:24:00;11.97;;;8.37;;
7027;SDS011;3555;53.248;10.336;2024-01-06T13:26:29;11.43;;;7.93;;
7027;SDS011;3555;53.248;10.336;2024-01-06T13:28:57;11.70;;;7.90;;
7027;SDS011;3555;53.248;10.336;2024-01-06T13:31:24;11.87;;;7.60;;
7027;SDS011;3555;53.248;10.336;2024-01-06T13:33:51;11.53;;;7.97;;
7027;SDS011;3555;53.248;10.336;2024-01-06T13:36:19;9.97;;;7.20;;
7027;SDS011;3555;53.248;10.336;2024-01-06T13:38:46;14.23;;;8.80;;
7027;SDS011;3555;53.248;10.336;2024-01-06T13:41:14;10.80;;;7.10;;
7027;SDS011;3555;53.248;10.336;2024-01-06T13:43:41;11.70;;;8.57;;
7027;SDS011;3555;53.248;10.336;2024-01-06T13:46:09;12.70;;;8.47;;
7027;SDS011;3555;53.248;10.336;2024-01-06T13:48:38;12.63;;;7.97;;
7027;SDS011;3555;53.248;10.336;2024-01-06T13:51:05;10.20;;;6.53;;
7027;SDS011;3555;53.248;10.336;2024-01-06T13:53:32;11.83;;;7.83;;
7027;SDS011;3555;53.248;10.336;2024-01-06T13:55:59;11.13;;;7.50;;
7027;SDS011;3555;53.248;10.336;2024-01-06T13:58:27;11.37;;;6.60;;
7027;SDS011;3555;53.248;10.336;2024-01-06T14:00:54;10.53;;;7.17;;
7027;SDS011;3555;53.248;10.336;2024-01-06T14:03:22;10.77;;;6.80;;
7027;SDS011;3555;53.248;10.336;2024-01-06T14:05:49;11.87;;;7.27;;
7027;SDS011;3555;53.248;10.336;2024-01-06T14:08:18;12.60;;;7.63;;
7027;SDS011;3555;53.248;10.336;2024-01-06T14:10:45;16.23;;;7.93;;
7027;SDS011;3555;53.248;10.336;2024-01-06T14:13:12;13.10;;;7.57;;
7027;SDS011;3555;53.248;10.336;2024-01-06T14:15:38;12.30;;;8.03;;
7027;SDS011;3555;53.248;10.336;2024-01-06T14:18:05;12.17;;;7.90;;
7027;SDS011;3555;53.248;10.336;2024-01-06T14:20:37;12.33;;;8.07;;
7027;SDS011;3555;53.248;10.336;2024-01-06T14:23:05;12.47;;;7.70;;
7027;SDS011;3555;53.248;10.336;2024-01-06T14:25:32;10.13;;;7.57;;
7027;SDS011;3555;53.248;10.336;2024-01-06T14:27:59;10.83;;;7.60;;
7027;SDS011;3555;53.248;10.336;2024-01-06T14:30:26;11.67;;;6.83;;
7027;SDS011;3555;53.248;10.336;2024-01-06T14:32:54;9.83;;;6.93;;
7027;SDS011;3555;53.248;10.336;2024-01-06T14:35:21;14.10;;;6.50;;
7027;SDS011;3555;53.248;10.336;2024-01-06T14:37:49;13.00;;;7.13;;
7027;SDS011;3555;53.248;10.336;2024-01-06T14:40:17;10.10;;;6.27;;
7027;SDS011;3555;53.248;10.336;2024-01-06T14:42:44;11.00;;;6.60;;
7027;SDS011;3555;53.248;10.336;2024-01-06T14:45:11;8.97;;;6.47;;
7027;SDS011;3555;53.248;10.336;2024-01-06T14:47:39;11.90;;;7.60;;
7027;SDS011;3555;53.248;10.336;2024-01-06T14:50:07;11.10;;;7.13;;